createdAt,value
2022-09-04T00:01:18.598Z,30.21
2022-09-04T00:03:57.492Z,29.93
2022-09-04T00:06:30.958Z,29.61
2022-09-04T00:09:12.764Z,30.00
2022-09-04T00:11:49.428Z,29.93
2022-09-04T00:14:27.595Z,29.88
2022-09-04T00:17:05.061Z,30.00
2022-09-04T00:19:39.001Z,29.89
2022-09-04T00:22:32.672Z,30.02
2022-09-04T00:25:06.207Z,29.71
2022-09-04T00:27:45.101Z,29.64
2022-09-04T00:30:22.060Z,29.67
2022-09-04T00:33:01.533Z,30.11
2022-09-04T00:35:34.216Z,30.48
2022-09-04T00:38:08.346Z,29.98
2022-09-04T00:40:42.627Z,29.48
2022-09-04T00:43:54.179Z,30.48
2022-09-04T00:46:52.277Z,30.47
2022-09-04T00:50:00.087Z,30.08
2022-09-04T00:52:58.590Z,30.49
2022-09-04T00:55:48.245Z,30.66
2022-09-04T00:58:40.358Z,30.40
2022-09-04T01:01:14.986Z,30.66
2022-09-04T01:04:07.441Z,30.28
2022-09-04T01:06:46.212Z,30.04
2022-09-04T01:09:36.839Z,30.25
2022-09-04T01:12:18.223Z,30.56
2022-09-04T01:14:56.847Z,30.58
2022-09-04T01:17:34.906Z,30.73
2022-09-04T01:20:12.485Z,30.50
2022-09-04T01:22:58.972Z,30.35
2022-09-04T01:25:57.667Z,30.10
2022-09-04T01:28:34.372Z,30.78
2022-09-04T01:31:15.432Z,30.59
2022-09-04T01:33:54.911Z,30.46
2022-09-04T01:36:47.846Z,30.50
2022-09-04T01:39:23.055Z,30.31
2022-09-04T01:42:03.270Z,30.74
2022-09-04T01:44:34.983Z,30.87
2022-09-04T01:47:17.701Z,30.90
2022-09-04T01:49:53.043Z,30.63
2022-09-04T01:52:42.560Z,31.01
2022-09-04T01:55:20.933Z,30.80
2022-09-04T01:58:08.861Z,30.84
2022-09-04T02:00:46.220Z,30.98
2022-09-04T02:03:23.640Z,30.92
2022-09-04T02:06:02.863Z,31.17
2022-09-04T02:08:46.389Z,30.74
2022-09-04T02:11:19.629Z,30.78
2022-09-04T02:14:17.861Z,30.66
2022-09-04T02:17:04.809Z,30.68
2022-09-04T02:19:42.906Z,30.76
2022-09-04T02:22:21.818Z,30.95
2022-09-04T02:24:57.460Z,31.08
2022-09-04T02:27:31.188Z,30.95
2022-09-04T02:30:04.425Z,30.94
2022-09-04T02:32:40.216Z,31.43
2022-09-04T02:35:16.185Z,31.53
2022-09-04T02:37:55.855Z,31.64
2022-09-04T02:40:32.734Z,31.80
2022-09-04T02:43:21.324Z,31.22
2022-09-04T02:46:01.702Z,31.29
2022-09-04T02:48:35.746Z,31.36
2022-09-04T02:51:27.364Z,31.06
2022-09-04T02:54:03.521Z,31.37
2022-09-04T02:56:44.474Z,31.49
2022-09-04T02:59:39.314Z,31.44
2022-09-04T03:02:19.199Z,32.00
2022-09-04T03:04:55.401Z,32.02
2022-09-04T03:07:32.590Z,32.11
2022-09-04T03:10:10.252Z,32.31
2022-09-04T03:12:46.016Z,32.48
2022-09-04T03:15:23.858Z,33.29
2022-09-04T03:18:00.034Z,32.96
2022-09-04T03:20:31.330Z,33.32
2022-09-04T03:23:05.758Z,33.32
2022-09-04T03:26:02.172Z,33.39
2022-09-04T03:28:42.944Z,33.88
2022-09-04T03:31:25.401Z,34.17
2022-09-04T03:34:07.472Z,34.00
2022-09-04T03:36:45.400Z,34.26
2022-09-04T03:39:21.142Z,34.45
2022-09-04T03:41:59.660Z,34.45
2022-09-04T03:44:35.689Z,34.27
2022-09-04T03:47:15.025Z,34.32
2022-09-04T03:50:02.728Z,34.54
2022-09-04T03:52:40.435Z,34.39
2022-09-04T03:55:26.397Z,34.57
2022-09-04T03:58:07.244Z,35.03
2022-09-04T04:00:45.434Z,35.03
2022-09-04T04:03:31.546Z,35.07
2022-09-04T04:06:14.922Z,34.79
2022-09-04T04:09:10.401Z,34.61
2022-09-04T04:12:06.438Z,35.19
2022-09-04T04:15:04.386Z,34.88
2022-09-04T04:17:49.808Z,34.89
2022-09-04T04:20:27.454Z,35.27
2022-09-04T04:23:28.346Z,34.97
2022-09-04T04:26:09.061Z,35.46
2022-09-04T04:29:08.821Z,35.48
2022-09-04T04:32:10.625Z,35.47
2022-09-04T04:34:49.673Z,35.35
2022-09-04T04:37:26.299Z,35.28
2022-09-04T04:40:03.499Z,35.68
2022-09-04T04:42:38.591Z,35.67
2022-09-04T04:45:36.986Z,36.08
2022-09-04T04:48:40.593Z,35.81
2022-09-04T04:51:20.385Z,35.95
2022-09-04T04:53:57.571Z,35.94
2022-09-04T04:56:35.744Z,35.62
2022-09-04T04:59:20.702Z,36.30
2022-09-04T05:02:00.326Z,36.26
2022-09-04T05:04:43.158Z,35.86
2022-09-04T05:07:20.416Z,35.97
2022-09-04T05:09:56.596Z,35.85
2022-09-04T05:12:35.404Z,36.34
2022-09-04T05:15:15.401Z,35.92
2022-09-04T05:17:52.656Z,35.64
2022-09-04T05:20:36.918Z,35.63
2022-09-04T05:23:16.325Z,36.07
2022-09-04T05:25:55.681Z,36.09
2022-09-04T05:28:35.230Z,36.04
2022-09-04T05:31:19.341Z,36.43
2022-09-04T05:34:04.652Z,36.45
2022-09-04T05:36:49.327Z,36.48
2022-09-04T05:39:28.742Z,36.77
2022-09-04T05:42:29.703Z,36.73
2022-09-04T05:45:15.245Z,36.76
2022-09-04T05:47:54.426Z,36.30
2022-09-04T05:51:07.983Z,36.09
2022-09-04T05:54:04.758Z,36.45
2022-09-04T05:56:55.247Z,36.36
2022-09-04T06:00:01.977Z,36.63
2022-09-04T06:03:18.359Z,36.42
2022-09-04T06:06:13.975Z,36.40
2022-09-04T06:09:14.104Z,36.56
2022-09-04T06:12:07.566Z,36.45
2022-09-04T06:15:07.615Z,36.54
2022-09-04T06:18:03.372Z,37.12
2022-09-04T06:20:58.221Z,37.06
2022-09-04T06:23:45.342Z,36.67
2022-09-04T06:26:30.006Z,36.93
2022-09-04T06:29:19.634Z,37.18
2022-09-04T06:32:20.518Z,37.09
2022-09-04T06:35:12.985Z,37.08
2022-09-04T06:38:09.960Z,37.45
2022-09-04T06:41:03.640Z,37.30
2022-09-04T06:43:38.928Z,36.84
2022-09-04T06:46:25.529Z,37.05
2022-09-04T06:49:06.417Z,37.61
2022-09-04T06:51:52.862Z,37.88
2022-09-04T06:54:39.825Z,37.92
2022-09-04T06:57:39.375Z,37.38
2022-09-04T07:00:10.931Z,37.92
2022-09-04T07:03:00.699Z,37.79
2022-09-04T07:05:39.462Z,38.33
2022-09-04T07:08:19.846Z,38.33
2022-09-04T07:11:06.505Z,37.88
2022-09-04T07:14:00.886Z,38.26
2022-09-04T07:16:45.392Z,38.43
2022-09-04T07:19:41.873Z,38.25
2022-09-04T07:22:27.664Z,38.01
2022-09-04T07:25:11.850Z,38.53
2022-09-04T07:27:55.907Z,38.59
2022-09-04T07:30:27.082Z,38.22
2022-09-04T07:33:01.160Z,39.05
2022-09-04T07:35:40.271Z,38.64
2022-09-04T07:38:22.345Z,39.01
2022-09-04T07:40:59.885Z,38.91
2022-09-04T07:43:40.824Z,38.95
2022-09-04T07:46:21.273Z,39.24
2022-09-04T07:49:03.686Z,38.65
2022-09-04T07:51:39.900Z,39.94
2022-09-04T07:54:48.757Z,38.70
2022-09-04T07:57:43.691Z,37.40
2022-09-04T08:00:19.326Z,37.38
2022-09-04T08:03:21.737Z,39.21
2022-09-04T08:05:57.340Z,38.72
2022-09-04T08:09:15.292Z,38.59
2022-09-04T08:12:05.446Z,37.86
2022-09-04T08:14:54.617Z,38.34
2022-09-04T08:18:12.111Z,38.07
2022-09-04T08:20:46.003Z,37.70
2022-09-04T08:23:42.757Z,37.52
2022-09-04T08:26:21.164Z,37.79
2022-09-04T08:29:08.047Z,37.81
2022-09-04T08:31:45.658Z,38.72
2022-09-04T08:34:48.504Z,38.08
2022-09-04T08:37:27.579Z,38.13
2022-09-04T08:40:19.781Z,37.89
2022-09-04T08:43:13.469Z,37.68
2022-09-04T08:46:33.035Z,37.67
2022-09-04T08:49:55.248Z,38.09
2022-09-04T08:52:53.644Z,38.46
2022-09-04T08:55:58.416Z,37.92
2022-09-04T08:59:07.138Z,37.48
2022-09-04T09:02:25.640Z,37.37
2022-09-04T09:05:37.960Z,37.34
2022-09-04T09:08:37.397Z,37.41
2022-09-04T09:11:40.158Z,37.63
2022-09-04T09:14:44.210Z,37.48
2022-09-04T09:17:20.392Z,37.71
2022-09-04T09:20:06.008Z,37.58
2022-09-04T09:23:16.068Z,37.45
2022-09-04T09:26:24.748Z,37.38
2022-09-04T09:29:27.371Z,37.77
2022-09-04T09:32:38.454Z,37.14
2022-09-04T09:35:56.084Z,37.58
2022-09-04T09:38:56.397Z,37.42
2022-09-04T09:42:14.961Z,38.05
2022-09-04T09:45:10.452Z,37.95
2022-09-04T09:48:29.050Z,37.89
2022-09-04T09:51:48.226Z,37.43
2022-09-04T09:55:03.166Z,37.01
2022-09-04T09:58:19.410Z,37.30
2022-09-04T10:01:08.472Z,37.39
2022-09-04T10:04:12.374Z,37.44
2022-09-04T10:07:41.585Z,36.82
2022-09-04T10:10:37.906Z,37.26
2022-09-04T10:13:34.805Z,36.49
2022-09-04T10:17:01.025Z,36.28
2022-09-04T10:19:51.348Z,35.45
2022-09-04T10:22:41.377Z,36.49
2022-09-04T10:25:40.117Z,36.72
2022-09-04T10:28:32.095Z,36.20
2022-09-04T10:31:20.060Z,35.71
2022-09-04T10:34:06.762Z,35.64
2022-09-04T10:37:06.289Z,35.23
2022-09-04T10:40:12.591Z,35.60
2022-09-04T10:42:54.431Z,35.88
2022-09-04T10:45:28.486Z,35.00
2022-09-04T10:48:28.940Z,35.51
2022-09-04T10:51:25.790Z,35.28
2022-09-04T10:54:27.134Z,35.23
2022-09-04T10:57:13.864Z,35.28
2022-09-04T11:00:15.749Z,35.26
2022-09-04T11:03:29.525Z,34.83
2022-09-04T11:06:49.584Z,34.59
2022-09-04T11:09:52.762Z,34.99
2022-09-04T11:12:44.686Z,34.87
2022-09-04T11:15:35.573Z,34.82
2022-09-04T11:18:36.149Z,34.99
2022-09-04T11:21:37.050Z,35.97
2022-09-04T11:24:39.888Z,34.88
2022-09-04T11:27:31.261Z,34.44
2022-09-04T11:30:08.002Z,34.82
2022-09-04T11:33:07.464Z,34.14
2022-09-04T11:36:31.595Z,34.32
2022-09-04T11:39:44.470Z,33.77
2022-09-04T11:42:31.573Z,33.98
2022-09-04T11:45:36.047Z,34.53
2022-09-04T11:48:42.856Z,33.88
2022-09-04T11:51:35.562Z,34.16
2022-09-04T11:54:28.084Z,34.21
2022-09-04T11:57:18.301Z,33.91
2022-09-04T12:00:10.208Z,33.78
2022-09-04T12:03:14.509Z,33.83
2022-09-04T12:06:10.270Z,33.42
2022-09-04T12:09:14.106Z,33.27
2022-09-04T12:12:17.826Z,33.71
2022-09-04T12:15:26.715Z,32.83
2022-09-04T12:18:35.089Z,33.14
2022-09-04T12:21:26.996Z,33.22
2022-09-04T12:24:23.833Z,32.88
2022-09-04T12:27:15.045Z,32.65
2022-09-04T12:30:07.299Z,32.84
2022-09-04T12:33:31.982Z,32.04
2022-09-04T12:36:42.687Z,32.65
2022-09-04T12:39:36.334Z,32.74
2022-09-04T12:42:17.318Z,32.13
2022-09-04T12:45:00.141Z,32.42
2022-09-04T12:47:46.798Z,32.32
2022-09-04T12:50:43.321Z,31.89
2022-09-04T12:53:49.259Z,31.71
2022-09-04T12:56:30.201Z,31.49
2022-09-04T12:59:22.956Z,31.53
2022-09-04T13:01:59.784Z,31.71
2022-09-04T13:04:39.859Z,30.68
2022-09-04T13:07:28.880Z,30.38
2022-09-04T13:10:10.513Z,31.01
2022-09-04T13:12:54.438Z,30.87
2022-09-04T13:15:35.747Z,31.38
2022-09-04T13:18:23.830Z,31.14
2022-09-04T13:20:59.500Z,31.15
2022-09-04T13:23:46.320Z,30.84
2022-09-04T13:26:39.120Z,29.78
2022-09-04T13:29:26.460Z,30.91
2022-09-04T13:32:20.714Z,30.27
2022-09-04T13:35:08.834Z,30.04
2022-09-04T13:37:53.795Z,29.42
2022-09-04T13:40:45.992Z,29.85
2022-09-04T13:43:42.091Z,29.67
2022-09-04T13:46:19.318Z,29.64
2022-09-04T13:48:55.352Z,29.42
2022-09-04T13:51:29.895Z,29.62
2022-09-04T13:54:08.837Z,29.37
2022-09-04T13:56:51.183Z,29.63
2022-09-04T13:59:23.948Z,29.97
2022-09-04T14:01:58.904Z,30.38
2022-09-04T14:04:34.897Z,29.95
2022-09-04T14:07:12.752Z,29.98
2022-09-04T14:09:47.352Z,30.01
2022-09-04T14:12:39.861Z,29.87
2022-09-04T14:15:52.070Z,29.53
2022-09-04T14:18:35.184Z,29.68
2022-09-04T14:21:11.058Z,29.85
2022-09-04T14:23:49.475Z,29.82
2022-09-04T14:26:31.748Z,29.92
2022-09-04T14:29:08.726Z,29.54
2022-09-04T14:31:48.939Z,29.75
2022-09-04T14:34:23.240Z,29.80
2022-09-04T14:37:01.770Z,29.89
2022-09-04T14:39:38.319Z,30.46
2022-09-04T14:42:26.940Z,29.84
2022-09-04T14:45:13.442Z,30.39
2022-09-04T14:47:47.378Z,30.49
2022-09-04T14:50:19.363Z,29.34
2022-09-04T14:52:51.901Z,28.86
2022-09-04T14:55:27.964Z,29.53
2022-09-04T14:58:02.823Z,29.21
2022-09-04T15:00:35.749Z,28.72
2022-09-04T15:03:15.559Z,28.87
2022-09-04T15:05:48.270Z,29.42
2022-09-04T15:08:29.871Z,29.17
2022-09-04T15:11:00.788Z,30.26
2022-09-04T15:13:39.397Z,29.88
2022-09-04T15:16:20.685Z,29.56
2022-09-04T15:18:57.350Z,28.29
2022-09-04T15:21:33.160Z,28.89
2022-09-04T15:24:17.525Z,28.84
2022-09-04T15:26:51.475Z,29.31
2022-09-04T15:29:27.250Z,28.70
2022-09-04T15:32:06.541Z,28.44
2022-09-04T15:34:43.540Z,28.52
2022-09-04T15:37:20.930Z,28.59
2022-09-04T15:40:13.382Z,28.25
2022-09-04T15:42:48.109Z,29.00
2022-09-04T15:45:25.119Z,28.91
2022-09-04T15:48:08.682Z,28.28
2022-09-04T15:50:52.813Z,28.80
2022-09-04T15:53:29.863Z,28.23
2022-09-04T15:56:10.813Z,28.74
2022-09-04T15:58:58.309Z,28.48
2022-09-04T16:01:33.569Z,28.10
2022-09-04T16:04:12.781Z,28.55
2022-09-04T16:06:49.801Z,28.75
2022-09-04T16:09:29.644Z,29.24
2022-09-04T16:12:06.699Z,28.21
2022-09-04T16:14:44.443Z,28.83
2022-09-04T16:17:21.541Z,28.44
2022-09-04T16:20:00.640Z,28.89
2022-09-04T16:22:40.885Z,29.02
2022-09-04T16:25:13.913Z,29.15
2022-09-04T16:27:50.295Z,29.26
2022-09-04T16:30:34.232Z,29.84
2022-09-04T16:33:12.947Z,30.29
2022-09-04T16:35:53.389Z,30.27
2022-09-04T16:38:30.932Z,30.83
2022-09-04T16:41:10.452Z,30.74
2022-09-04T16:43:40.843Z,31.14
2022-09-04T16:46:19.062Z,31.40
2022-09-04T16:48:54.239Z,31.62
2022-09-04T16:51:39.909Z,31.54
2022-09-04T16:54:18.744Z,31.46
2022-09-04T16:57:12.503Z,31.89
2022-09-04T16:59:46.505Z,31.74
2022-09-04T17:02:36.121Z,31.71
2022-09-04T17:05:19.998Z,32.38
2022-09-04T17:07:59.439Z,31.99
2022-09-04T17:10:42.246Z,32.23
2022-09-04T17:13:27.631Z,32.30
2022-09-04T17:16:00.880Z,32.32
2022-09-04T17:18:33.054Z,32.63
2022-09-04T17:26:02.243Z,32.97
2022-09-04T17:29:07.536Z,32.89
2022-09-04T17:29:13.392Z,33.03
2022-09-04T17:30:28.839Z,33.09
2022-09-04T17:38:39.960Z,32.79
2022-09-04T17:40:34.054Z,32.92
2022-09-04T17:40:54.951Z,32.95
2022-09-04T17:41:59.396Z,33.03
2022-09-04T17:44:47.402Z,33.61
2022-09-04T17:47:28.603Z,33.21
2022-09-04T17:49:58.521Z,33.11
2022-09-04T17:52:29.419Z,33.52
2022-09-04T17:55:03.231Z,33.20
2022-09-04T17:57:50.550Z,33.44
2022-09-04T18:00:24.979Z,33.54
2022-09-04T18:03:00.777Z,33.54
2022-09-04T18:05:36.463Z,33.49
2022-09-04T18:08:20.443Z,33.62
2022-09-04T18:10:57.645Z,33.34
2022-09-04T18:13:39.383Z,33.54
2022-09-04T18:16:19.463Z,33.69
2022-09-04T18:18:51.594Z,33.46
2022-09-04T18:21:27.476Z,33.72
2022-09-04T18:24:05.275Z,33.79
2022-09-04T18:26:41.386Z,33.78
2022-09-04T18:31:51.325Z,33.88
2022-09-04T18:37:07.919Z,33.59
2022-09-04T18:37:20.596Z,33.89
2022-09-04T18:38:41.841Z,33.92
2022-09-04T18:47:28.809Z,34.00
2022-09-04T18:50:24.920Z,33.83
2022-09-04T18:50:32.334Z,34.30
2022-09-04T18:50:50.392Z,34.10
2022-09-04T18:53:07.380Z,34.24
2022-09-04T18:55:44.394Z,34.20
2022-09-04T18:58:40.395Z,34.37
2022-09-04T19:01:16.958Z,34.77
2022-09-04T19:04:20.226Z,34.48
2022-09-04T19:07:06.750Z,34.06
2022-09-04T19:10:18.849Z,34.49
2022-09-04T19:13:02.311Z,34.77
2022-09-04T19:15:53.719Z,34.41
2022-09-04T19:18:30.321Z,34.66
2022-09-04T19:21:24.391Z,34.70
2022-09-04T19:24:02.595Z,35.01
2022-09-04T19:26:43.074Z,34.90
2022-09-04T19:29:22.133Z,34.92
2022-09-04T19:31:58.461Z,34.83
2022-09-04T19:34:36.731Z,35.11
2022-09-04T19:38:27.509Z,35.36
2022-09-04T19:45:56.575Z,35.12
2022-09-04T19:46:00.251Z,35.20
2022-09-04T19:50:48.867Z,35.29
2022-09-04T19:53:40.660Z,35.78
2022-09-04T19:55:23.069Z,35.70
2022-09-04T19:57:47.443Z,35.78
2022-09-04T20:00:42.111Z,35.69
2022-09-04T20:03:30.080Z,36.22
2022-09-04T20:06:20.729Z,36.14
2022-09-04T20:09:02.378Z,36.08
2022-09-04T20:11:39.343Z,36.52
2022-09-04T20:14:16.977Z,36.22
2022-09-04T20:16:58.079Z,36.21
2022-09-04T20:19:38.082Z,35.91
2022-09-04T20:22:14.880Z,36.07
2022-09-04T20:25:08.760Z,35.80
2022-09-04T20:27:48.008Z,36.06
2022-09-04T20:30:24.192Z,36.05
2022-09-04T20:32:59.432Z,35.59
2022-09-04T20:35:39.120Z,35.64
2022-09-04T20:38:23.835Z,35.50
2022-09-04T20:40:59.839Z,35.32
2022-09-04T20:43:42.568Z,35.23
2022-09-04T20:52:43.579Z,35.58
2022-09-04T20:53:00.199Z,35.58
2022-09-04T20:53:00.569Z,35.69
2022-09-04T20:55:33.933Z,35.32
2022-09-04T21:02:02.492Z,35.06
2022-09-04T21:03:18.177Z,35.05
2022-09-04T21:04:18.260Z,35.21
2022-09-04T21:07:07.552Z,35.28
2022-09-04T21:09:55.306Z,35.11
2022-09-04T21:12:37.418Z,35.39
2022-09-04T21:15:18.697Z,35.79
2022-09-04T21:18:05.131Z,35.77
2022-09-04T21:21:11.158Z,35.79
2022-09-04T21:24:12.414Z,35.76
2022-09-04T21:27:10.417Z,36.08
2022-09-04T21:29:57.357Z,36.23
2022-09-04T21:32:48.954Z,36.16
2022-09-04T21:35:23.509Z,36.15
2022-09-04T21:38:04.421Z,36.36
2022-09-04T21:41:03.898Z,36.53
2022-09-04T21:44:00.200Z,36.56
2022-09-04T21:46:53.875Z,36.53
2022-09-04T21:49:50.410Z,36.91
2022-09-04T21:52:45.896Z,36.75
2022-09-04T21:58:00.456Z,37.06
2022-09-04T22:02:41.886Z,37.23
2022-09-04T22:02:46.281Z,36.98
2022-09-04T22:05:05.915Z,37.28
2022-09-04T22:13:18.848Z,37.18
2022-09-04T22:13:42.493Z,37.06
2022-09-04T22:14:03.343Z,37.30
2022-09-04T22:16:53.929Z,37.25
2022-09-04T22:19:59.143Z,37.01
2022-09-04T22:23:13.082Z,37.21
2022-09-04T22:26:14.842Z,37.21
2022-09-04T22:29:05.978Z,37.39
2022-09-04T22:32:03.457Z,37.10
2022-09-04T22:35:17.943Z,37.27
2022-09-04T22:38:19.263Z,37.24
2022-09-04T22:41:06.050Z,37.06
2022-09-04T22:43:47.227Z,37.23
2022-09-04T22:46:48.829Z,37.03
2022-09-04T22:49:44.637Z,37.30
2022-09-04T22:52:54.175Z,37.06
2022-09-04T22:55:40.441Z,37.27
2022-09-04T22:58:42.394Z,37.25
2022-09-04T23:01:32.365Z,37.41
2022-09-04T23:04:26.421Z,37.47
2022-09-04T23:12:31.999Z,37.52
2022-09-04T23:13:43.266Z,37.51
2022-09-04T23:14:06.454Z,37.54
2022-09-04T23:17:11.936Z,37.51
2022-09-04T23:23:30.626Z,37.49
2022-09-04T23:26:42.532Z,37.81
2022-09-04T23:26:59.908Z,37.98
2022-09-04T23:29:51.404Z,37.78
2022-09-04T23:32:55.762Z,37.74
2022-09-04T23:35:36.003Z,37.73
2022-09-04T23:38:33.515Z,37.76
2022-09-04T23:41:10.372Z,37.72
2022-09-04T23:44:11.390Z,37.84
2022-09-04T23:47:01.401Z,38.10
2022-09-04T23:50:00.266Z,38.03
2022-09-04T23:52:48.643Z,38.05
2022-09-04T23:55:43.143Z,37.93
2022-09-04T23:58:47.175Z,37.89
